Tarpon — WDG9715 — position and weather

sailwx.info

Track history (hours):
 
Tides and Currents Weather Stations Pressure Air Temp Water Temp Dewpoint Dewpoint Depression Visibility Wind Speed Wind Dir Waves Ship Positions

Tarpon

Owner: Kirby Offshore Marine, LLC, Staten Island, NY. More information available from US FCC via Universal Licensing System and Coast Guard Vessel Documentation Center.

Last reported at 2017-Sep-24 11:23 UTC. Time now 2017-Sep-25 00:46 UTC.
Position N 40°35' W 074°12'.

Length 129 m; draft 4.9 m.

Type: . MMSI: 366920940.

Date/timePositionNaut miles runAvg speedWind from/ knotsBaromVisibWave heightAir tempDewpointWater temp
2017-Sep-24 11:23N 40°35' W 074°12'2 3.8
2017-Sep-24 10:53N 40°33' W 074°13'2 3.8
2017-Sep-24 10:28N 40°32' W 074°15'1 1.0
2017-Sep-24 09:55N 40°32' W 074°15'3 1.1
2017-Sep-24 07:34N 40°30' W 074°13'2 6.3
2017-Sep-24 07:11N 40°30' W 074°10'1 6.0
2017-Sep-24 06:58N 40°30' W 074°09'0 0.5
2017-Sep-24 06:21N 40°30' W 074°09'0 0.0
2017-Sep-23 20:36N 40°30' W 074°09'0 0.0
2017-Sep-23 20:30N 40°30' W 074°09'8 0.2
2017-Sep-22 01:58N 40°36' W 074°02'0 0.1
2017-Sep-22 01:25N 40°36' W 074°02'0 0.1
2017-Sep-22 00:58N 40°36' W 074°02'0 0.1
2017-Sep-22 00:25N 40°36' W 074°02'0 0.0
2017-Sep-21 23:58N 40°36' W 074°02'0 0.0
2017-Sep-21 23:22N 40°36' W 074°02'0 0.0
2017-Sep-21 22:58N 40°36' W 074°02'0 0.0
2017-Sep-21 22:28N 40°36' W 074°02'0 0.1
2017-Sep-21 21:58N 40°36' W 074°02'0 0.1
2017-Sep-21 21:31N 40°36' W 074°02'2 3.7
2017-Sep-21 21:00N 40°37' W 074°03'3 6.5
2017-Sep-21 20:30N 40°39' W 074°07'2 3.9
2017-Sep-21 20:00N 40°38' W 074°09'0 0.6
2017-Sep-21 19:29N 40°38' W 074°10'0 0.0
2017-Sep-21 18:59N 40°38' W 074°10'0 0.0
2017-Sep-21 18:29N 40°38' W 074°10'0 0.0
2017-Sep-21 17:59N 40°38' W 074°10'0 0.0
2017-Sep-21 17:29N 40°38' W 074°10'0 0.0
2017-Sep-21 16:59N 40°38' W 074°10'0 0.0
2017-Sep-21 16:26N 40°38' W 074°10'0 0.2
2017-Sep-21 16:00N 40°38' W 074°10'0 0.5
2017-Sep-21 15:28N 40°38' W 074°10'0 0.0
2017-Sep-21 14:55N 40°38' W 074°09'0 0.0
2017-Sep-21 14:25N 40°38' W 074°09'0 0.0
2017-Sep-21 13:58N 40°38' W 074°10'0 0.0
2017-Sep-21 13:28N 40°38' W 074°09'0 0.0
2017-Sep-21 12:58N 40°38' W 074°10'0 0.0
2017-Sep-21 12:28N 40°38' W 074°10'0 0.0
2017-Sep-21 11:58N 40°38' W 074°10'0 0.0
2017-Sep-21 11:28N 40°38' W 074°09'0 0.0
2017-Sep-21 10:58N 40°38' W 074°10'0 0.0
2017-Sep-21 10:28N 40°38' W 074°10'0 0.0
2017-Sep-21 09:58N 40°38' W 074°09'0 0.0
2017-Sep-21 09:28N 40°38' W 074°10'0 0.0
2017-Sep-21 08:58N 40°38' W 074°10'0 0.0
2017-Sep-21 08:28N 40°38' W 074°09'0 0.0
2017-Sep-21 07:58N 40°38' W 074°10'0 0.0
2017-Sep-21 07:28N 40°38' W 074°09'0 0.0
2017-Sep-21 06:58N 40°38' W 074°09'0 0.0
2017-Sep-21 06:28N 40°38' W 074°09'0 0.0
2017-Sep-21 05:58N 40°38' W 074°09'0 0.0
2017-Sep-21 05:28N 40°38' W 074°10'0 0.0
2017-Sep-21 04:58N 40°38' W 074°10'0 0.0
2017-Sep-21 04:28N 40°38' W 074°09'0 0.0
2017-Sep-21 03:58N 40°38' W 074°09'0 0.0
2017-Sep-21 03:28N 40°38' W 074°09'0 0.0
2017-Sep-21 02:58N 40°38' W 074°10'0 0.0
2017-Sep-21 02:28N 40°38' W 074°09'0 0.0
2017-Sep-21 01:58N 40°38' W 074°09'0 0.2
2017-Sep-21 01:30N 40°38' W 074°09'3 5.7
2017-Sep-21 01:00N 40°39' W 074°06'2 4.6
2017-Sep-21 00:30N 40°39' W 074°03'0 0.1
2017-Sep-21 00:00N 40°39' W 074°03'0 0.1
2017-Sep-20 23:30N 40°39' W 074°03'0 0.1
2017-Sep-20 23:00N 40°39' W 074°03'0 0.2
2017-Sep-20 22:30N 40°39' W 074°03'0 0.0
2017-Sep-20 22:00N 40°39' W 074°03'0 0.0
2017-Sep-20 21:30N 40°39' W 074°03'0 0.0
2017-Sep-20 21:00N 40°39' W 074°03'0 0.0
2017-Sep-20 20:30N 40°39' W 074°03'0 0.0
2017-Sep-20 20:00N 40°39' W 074°03'0 0.0
2017-Sep-20 19:27N 40°39' W 074°03'0 0.0
2017-Sep-20 19:00N 40°39' W 074°03'0 0.0
2017-Sep-20 18:30N 40°39' W 074°03'0 0.0
2017-Sep-20 18:00N 40°39' W 074°03'0 0.0
2017-Sep-20 17:30N 40°39' W 074°03'0 0.0
2017-Sep-20 17:00N 40°39' W 074°03'0 0.0
2017-Sep-20 16:30N 40°39' W 074°03'0 0.1
2017-Sep-20 16:00N 40°39' W 074°03'0 0.1
2017-Sep-20 15:30N 40°39' W 074°03'1 1.8
2017-Sep-20 15:00N 40°40' W 074°03'7 7.2
2017-Sep-20 14:00N 40°47' W 073°60'3 6.2
2017-Sep-20 13:30N 40°50' W 073°58'3 6.3
2017-Sep-20 13:00N 40°53' W 073°56'0 0.2
2017-Sep-20 12:30N 40°53' W 073°56'0 0.2
2017-Sep-20 12:00N 40°53' W 073°56'0 0.3
2017-Sep-20 11:30N 40°52' W 073°56'0 0.0
2017-Sep-20 11:00N 40°52' W 073°56'0 0.0
2017-Sep-20 10:30N 40°52' W 073°56'0 0.0
2017-Sep-20 10:00N 40°52' W 073°56'0 0.0
2017-Sep-20 09:30N 40°52' W 073°56'0 0.0
2017-Sep-20 09:00N 40°52' W 073°56'0 0.0
2017-Sep-20 08:30N 40°52' W 073°56'0 0.0
2017-Sep-20 07:57N 40°52' W 073°56'0 0.0
2017-Sep-20 07:30N 40°52' W 073°56'0 0.0
2017-Sep-20 07:00N 40°52' W 073°56'0 0.0
2017-Sep-20 06:30N 40°52' W 073°56'0 0.0
2017-Sep-20 06:00N 40°52' W 073°56'0 0.0
2017-Sep-20 05:30N 40°52' W 073°56'0 0.0
2017-Sep-20 04:57N 40°52' W 073°56'0 0.0
2017-Sep-20 04:27N 40°52' W 073°56'0 0.0
2017-Sep-20 04:00N 40°52' W 073°56'0 0.3
2017-Sep-20 03:30N 40°53' W 073°56'0 0.1
2017-Sep-20 03:00N 40°53' W 073°56'0 0.0
2017-Sep-20 02:30N 40°53' W 073°56'0 0.0
2017-Sep-20 02:00N 40°53' W 073°56'0 0.0
2017-Sep-20 01:30N 40°53' W 073°56'0 0.0
2017-Sep-20 01:00N 40°53' W 073°56'0 0.0
2017-Sep-20 00:30N 40°53' W 073°56'0 0.1
2017-Sep-19 23:54N 40°53' W 073°56'0 0.1
2017-Sep-19 23:30N 40°53' W 073°56'0 0.3
2017-Sep-19 23:00N 40°52' W 073°56'0 0.1
2017-Sep-19 22:30N 40°52' W 073°56'0 0.1
2017-Sep-19 22:00N 40°52' W 073°56'0 0.1
2017-Sep-19 21:30N 40°52' W 073°56'0 0.0
2017-Sep-19 21:00N 40°52' W 073°56'0 0.0
2017-Sep-19 20:30N 40°52' W 073°56'0 0.0
2017-Sep-19 19:57N 40°52' W 073°56'0 0.0
2017-Sep-19 19:30N 40°52' W 073°56'0 0.0
2017-Sep-19 19:00N 40°52' W 073°56'0 0.0
2017-Sep-19 18:30N 40°52' W 073°56'0 0.0
2017-Sep-19 18:00N 40°52' W 073°56'0 0.0
2017-Sep-19 17:30N 40°52' W 073°56'0 0.1
2017-Sep-19 17:00N 40°52' W 073°56'0 0.0
2017-Sep-19 16:30N 40°52' W 073°56'0 0.0
2017-Sep-19 15:57N 40°52' W 073°56'0 0.3
2017-Sep-19 15:30N 40°53' W 073°56'0 0.1
2017-Sep-19 15:00N 40°53' W 073°56'0 0.1
2017-Sep-19 14:30N 40°53' W 073°56'0 0.0
2017-Sep-19 14:00N 40°53' W 073°56'0 0.0
2017-Sep-19 13:30N 40°53' W 073°56'0 0.0
2017-Sep-19 12:48N 40°53' W 073°56'0 0.0
2017-Sep-19 12:30N 40°53' W 073°56'0 0.0
2017-Sep-19 12:00N 40°53' W 073°56'0 0.0
2017-Sep-19 11:30N 40°53' W 073°56'0 0.2
2017-Sep-19 10:51N 40°53' W 073°56'0 0.2
2017-Sep-19 10:30N 40°52' W 073°56'0 0.1
2017-Sep-19 10:00N 40°52' W 073°56'0 0.0
2017-Sep-19 09:30N 40°52' W 073°56'0 0.0
2017-Sep-19 09:00N 40°52' W 073°56'0 0.0
2017-Sep-19 08:30N 40°52' W 073°56'0 0.0
2017-Sep-19 08:00N 40°52' W 073°56'0 0.0
2017-Sep-19 07:30N 40°52' W 073°56'0 0.0
2017-Sep-19 07:00N 40°52' W 073°56'0 0.0
2017-Sep-19 06:30N 40°52' W 073°56'0 0.0
2017-Sep-19 06:00N 40°52' W 073°56'0 0.0
2017-Sep-19 05:30N 40°52' W 073°56'0 0.0
2017-Sep-19 05:00N 40°52' W 073°56'0 0.0
2017-Sep-19 04:30N 40°52' W 073°56'0 0.0
2017-Sep-19 04:00N 40°52' W 073°56'0 0.2
2017-Sep-19 03:27N 40°53' W 073°56'0 0.3
2017-Sep-19 03:00N 40°53' W 073°56'0 0.1
2017-Sep-19 02:30N 40°53' W 073°56'0 0.0
2017-Sep-19 01:57N 40°53' W 073°56'0 0.0
2017-Sep-19 01:30N 40°53' W 073°56'0 0.0
2017-Sep-19 01:00N 40°53' W 073°56'0 0.0
2017-Sep-19 00:27N 40°53' W 073°56'0 0.0
2017-Sep-19 00:00N 40°53' W 073°56'0 0.0
2017-Sep-18 23:30N 40°53' W 073°56'0 0.0
2017-Sep-18 22:57N 40°53' W 073°56'0 0.1
2017-Sep-18 22:24N 40°53' W 073°56'0 0.2
2017-Sep-18 22:00N 40°53' W 073°56'3 6.1
2017-Sep-18 21:30N 40°50' W 073°57'4 8.7
2017-Sep-18 21:00N 40°46' W 074°00'4 8.0
2017-Sep-18 20:30N 40°42' W 074°02'3 4.7
2017-Sep-18 19:58N 40°40' W 074°03'0 0.0
2017-Sep-18 19:28N 40°40' W 074°03'0 0.0
2017-Sep-18 18:58N 40°40' W 074°03'0 0.0
2017-Sep-18 18:25N 40°40' W 074°03'0 0.0
2017-Sep-18 17:58N 40°40' W 074°03'0 0.3
2017-Sep-18 17:30N 40°40' W 074°03'510.0
2017-Sep-18 17:00N 40°38' W 074°09'1 1.2
2017-Sep-18 16:29N 40°38' W 074°10'0 0.0
2017-Sep-18 15:59N 40°38' W 074°10'0 0.0
2017-Sep-18 15:29N 40°38' W 074°10'0 0.0
2017-Sep-18 14:56N 40°38' W 074°10'0 0.0
2017-Sep-18 14:29N 40°38' W 074°10'0 0.0
2017-Sep-18 13:59N 40°38' W 074°10'0 0.0
2017-Sep-18 13:29N 40°38' W 074°10'0 0.0
2017-Sep-18 12:59N 40°38' W 074°10'0 0.0
2017-Sep-18 12:29N 40°38' W 074°10'0 0.0
2017-Sep-18 11:59N 40°38' W 074°10'2 5.2
2017-Sep-18 11:30N 40°39' W 074°07'3 6.8
2017-Sep-18 11:00N 40°40' W 074°02'0 0.0
2017-Sep-18 10:30N 40°40' W 074°02'0 0.1
2017-Sep-18 10:00N 40°40' W 074°02'0 0.2
2017-Sep-18 09:30N 40°40' W 074°03'0 0.1
2017-Sep-18 09:00N 40°40' W 074°03'0 0.0
2017-Sep-18 08:30N 40°40' W 074°03'0 0.0
2017-Sep-18 08:00N 40°40' W 074°03'0 0.0
2017-Sep-18 07:30N 40°40' W 074°03'0 0.0
2017-Sep-18 07:00N 40°40' W 074°03'0 0.1
2017-Sep-18 06:30N 40°40' W 074°03'4 8.6
2017-Sep-18 06:00N 40°44' W 074°01'611.6
2017-Sep-18 05:30N 40°49' W 073°58'611.1
2017-Sep-18 05:00N 40°55' W 073°55'3 0.1
2017-Sep-16 01:59N 40°57' W 073°54'3 6.0
2017-Sep-16 01:29N 40°54' W 073°55'3 6.2
2017-Sep-16 01:00N 40°52' W 073°57'3 6.8
2017-Sep-16 00:30N 40°49' W 073°58'4 7.3
2017-Sep-16 00:01N 40°45' W 074°01'4 7.5
2017-Sep-15 23:31N 40°42' W 074°02'3 6.6
2017-Sep-15 23:01N 40°39' W 074°04'4 7.7
2017-Sep-15 22:31N 40°39' W 074°09'2 4.9
2017-Sep-15 22:00N 40°38' W 074°12'0 0.0
2017-Sep-15 21:24N 40°38' W 074°12'0 0.0
2017-Sep-15 21:00N 40°38' W 074°12'0 0.0
2017-Sep-15 20:19N 40°38' W 074°12'0 0.0
2017-Sep-15 19:55N 40°38' W 074°12'0 0.0
2017-Sep-15 19:22N 40°38' W 074°12'0 0.0
2017-Sep-15 18:55N 40°38' W 074°12'0 0.0
2017-Sep-15 18:28N 40°38' W 074°12'0 0.0
2017-Sep-15 17:52N 40°38' W 074°12'0 0.0
2017-Sep-15 17:25N 40°38' W 074°12'0 0.0
2017-Sep-15 16:58N 40°38' W 074°12'0 0.0
2017-Sep-15 16:25N 40°38' W 074°12'0 0.0
2017-Sep-15 15:55N 40°38' W 074°12'0 0.0
2017-Sep-15 15:25N 40°38' W 074°12'0 0.0
2017-Sep-15 14:58N 40°38' W 074°12'0 0.0
2017-Sep-15 14:25N 40°38' W 074°12'0 0.0
2017-Sep-15 13:55N 40°38' W 074°12'0 0.0
2017-Sep-15 13:28N 40°38' W 074°12'0 0.0
2017-Sep-15 12:55N 40°38' W 074°12'0 0.0
2017-Sep-15 12:25N 40°38' W 074°12'0 0.0
2017-Sep-15 11:58N 40°38' W 074°12'0 0.0
2017-Sep-15 11:28N 40°38' W 074°12'0 0.0
2017-Sep-15 10:55N 40°38' W 074°12'0 0.0
2017-Sep-15 10:28N 40°38' W 074°12'0 0.0
2017-Sep-15 09:52N 40°38' W 074°12'0 0.0
2017-Sep-15 09:25N 40°38' W 074°12'0 0.0
2017-Sep-15 08:58N 40°38' W 074°12'0 0.0
2017-Sep-15 08:28N 40°38' W 074°12'0 0.0
2017-Sep-15 07:58N 40°38' W 074°12'0 0.0
2017-Sep-15 07:25N 40°38' W 074°12'0 0.0
2017-Sep-15 06:58N 40°38' W 074°12'0 0.0
2017-Sep-15 06:28N 40°38' W 074°12'0 0.0
2017-Sep-15 05:55N 40°38' W 074°12'0 0.0
2017-Sep-15 05:28N 40°38' W 074°12'0 0.0
2017-Sep-15 04:58N 40°38' W 074°12'0 0.0
2017-Sep-15 04:25N 40°38' W 074°12'0 0.0
2017-Sep-15 03:58N 40°38' W 074°12'0 0.0
2017-Sep-15 03:28N 40°38' W 074°12'0 0.0
2017-Sep-15 02:58N 40°38' W 074°12'0 0.0
2017-Sep-15 02:28N 40°38' W 074°12'0 0.0
2017-Sep-15 01:58N 40°38' W 074°12'0 0.0
2017-Sep-15 01:28N 40°38' W 074°12'0 0.0
2017-Sep-15 00:58N 40°38' W 074°12'0 0.0
2017-Sep-15 00:28N 40°38' W 074°12'0 0.0
2017-Sep-14 23:58N 40°38' W 074°12'0 0.0
2017-Sep-14 23:28N 40°38' W 074°12'0 0.0
2017-Sep-14 22:52N 40°38' W 074°12'0 0.0
2017-Sep-14 22:28N 40°38' W 074°12'1 1.4
2017-Sep-14 21:59N 40°37' W 074°12'1 1.2
2017-Sep-14 21:30N 40°37' W 074°12'2 4.0
2017-Sep-14 21:01N 40°39' W 074°10'3 6.0
2017-Sep-14 20:30N 40°39' W 074°06'3 5.8
2017-Sep-14 19:58N 40°40' W 074°02'0 0.0
2017-Sep-14 19:28N 40°40' W 074°02'0 0.1
2017-Sep-14 18:58N 40°40' W 074°02'0 0.0
2017-Sep-14 18:28N 40°40' W 074°02'0 0.0
2017-Sep-14 17:58N 40°40' W 074°02'0 0.0
2017-Sep-14 17:28N 40°40' W 074°02'0 0.0
2017-Sep-14 16:58N 40°40' W 074°02'0 0.1
2017-Sep-14 16:28N 40°40' W 074°02'0 0.2
2017-Sep-14 15:58N 40°40' W 074°02'0 0.0
2017-Sep-14 15:28N 40°40' W 074°02'0 0.1
2017-Sep-14 14:58N 40°40' W 074°02'0 0.1
2017-Sep-14 14:28N 40°40' W 074°02'0 0.1
2017-Sep-14 13:58N 40°40' W 074°02'0 0.0
2017-Sep-14 13:28N 40°40' W 074°02'0 0.0
2017-Sep-14 12:58N 40°40' W 074°02'0 0.0
2017-Sep-14 12:28N 40°40' W 074°02'0 0.0
2017-Sep-14 11:58N 40°40' W 074°02'0 0.0
2017-Sep-14 11:28N 40°40' W 074°02'  
Track history (hours):
 
Tides and Currents Weather Stations Pressure Air Temp Water Temp Dewpoint Dewpoint Depression Visibility Wind Speed Wind Dir Waves Ship Positions

Tarpon

Owner: Kirby Offshore Marine, LLC, Staten Island, NY. More information available from US FCC via Universal Licensing System and Coast Guard Vessel Documentation Center.

Last reported at 2017-Sep-24 11:23 UTC. Time now 2017-Sep-25 00:46 UTC.
Position N 40°35' W 074°12'.

Length 129 m; draft 4.9 m.

Type: . MMSI: 366920940.

Date/timePositionNaut miles runAvg speedWind from/ knotsBaromVisibWave heightAir tempDewpointWater temp
2017-Sep-24 11:23N 40°35' W 074°12'2 3.8
2017-Sep-24 10:53N 40°33' W 074°13'2 3.8
2017-Sep-24 10:28N 40°32' W 074°15'1 1.0
2017-Sep-24 09:55N 40°32' W 074°15'3 1.1
2017-Sep-24 07:34N 40°30' W 074°13'2 6.3
2017-Sep-24 07:11N 40°30' W 074°10'1 6.0
2017-Sep-24 06:58N 40°30' W 074°09'0 0.5
2017-Sep-24 06:21N 40°30' W 074°09'0 0.0
2017-Sep-23 20:36N 40°30' W 074°09'0 0.0
2017-Sep-23 20:30N 40°30' W 074°09'8 0.2
2017-Sep-22 01:58N 40°36' W 074°02'0 0.1
2017-Sep-22 01:25N 40°36' W 074°02'0 0.1
2017-Sep-22 00:58N 40°36' W 074°02'0 0.1
2017-Sep-22 00:25N 40°36' W 074°02'0 0.0
2017-Sep-21 23:58N 40°36' W 074°02'0 0.0
2017-Sep-21 23:22N 40°36' W 074°02'0 0.0
2017-Sep-21 22:58N 40°36' W 074°02'0 0.0
2017-Sep-21 22:28N 40°36' W 074°02'0 0.1
2017-Sep-21 21:58N 40°36' W 074°02'0 0.1
2017-Sep-21 21:31N 40°36' W 074°02'2 3.7
2017-Sep-21 21:00N 40°37' W 074°03'3 6.5
2017-Sep-21 20:30N 40°39' W 074°07'2 3.9
2017-Sep-21 20:00N 40°38' W 074°09'0 0.6
2017-Sep-21 19:29N 40°38' W 074°10'0 0.0
2017-Sep-21 18:59N 40°38' W 074°10'0 0.0
2017-Sep-21 18:29N 40°38' W 074°10'0 0.0
2017-Sep-21 17:59N 40°38' W 074°10'0 0.0
2017-Sep-21 17:29N 40°38' W 074°10'0 0.0
2017-Sep-21 16:59N 40°38' W 074°10'0 0.0
2017-Sep-21 16:26N 40°38' W 074°10'0 0.2
2017-Sep-21 16:00N 40°38' W 074°10'0 0.5
2017-Sep-21 15:28N 40°38' W 074°10'0 0.0
2017-Sep-21 14:55N 40°38' W 074°09'0 0.0
2017-Sep-21 14:25N 40°38' W 074°09'0 0.0
2017-Sep-21 13:58N 40°38' W 074°10'0 0.0
2017-Sep-21 13:28N 40°38' W 074°09'0 0.0
2017-Sep-21 12:58N 40°38' W 074°10'0 0.0
2017-Sep-21 12:28N 40°38' W 074°10'0 0.0
2017-Sep-21 11:58N 40°38' W 074°10'0 0.0
2017-Sep-21 11:28N 40°38' W 074°09'0 0.0
2017-Sep-21 10:58N 40°38' W 074°10'0 0.0
2017-Sep-21 10:28N 40°38' W 074°10'0 0.0
2017-Sep-21 09:58N 40°38' W 074°09'0 0.0
2017-Sep-21 09:28N 40°38' W 074°10'0 0.0
2017-Sep-21 08:58N 40°38' W 074°10'0 0.0
2017-Sep-21 08:28N 40°38' W 074°09'0 0.0
2017-Sep-21 07:58N 40°38' W 074°10'0 0.0
2017-Sep-21 07:28N 40°38' W 074°09'0 0.0
2017-Sep-21 06:58N 40°38' W 074°09'0 0.0
2017-Sep-21 06:28N 40°38' W 074°09'0 0.0
2017-Sep-21 05:58N 40°38' W 074°09'0 0.0
2017-Sep-21 05:28N 40°38' W 074°10'0 0.0
2017-Sep-21 04:58N 40°38' W 074°10'0 0.0
2017-Sep-21 04:28N 40°38' W 074°09'0 0.0
2017-Sep-21 03:58N 40°38' W 074°09'0 0.0
2017-Sep-21 03:28N 40°38' W 074°09'0 0.0
2017-Sep-21 02:58N 40°38' W 074°10'0 0.0
2017-Sep-21 02:28N 40°38' W 074°09'0 0.0
2017-Sep-21 01:58N 40°38' W 074°09'0 0.2
2017-Sep-21 01:30N 40°38' W 074°09'3 5.7
2017-Sep-21 01:00N 40°39' W 074°06'2 4.6
2017-Sep-21 00:30N 40°39' W 074°03'0 0.1
2017-Sep-21 00:00N 40°39' W 074°03'0 0.1
2017-Sep-20 23:30N 40°39' W 074°03'0 0.1
2017-Sep-20 23:00N 40°39' W 074°03'0 0.2
2017-Sep-20 22:30N 40°39' W 074°03'0 0.0
2017-Sep-20 22:00N 40°39' W 074°03'0 0.0
2017-Sep-20 21:30N 40°39' W 074°03'0 0.0
2017-Sep-20 21:00N 40°39' W 074°03'0 0.0
2017-Sep-20 20:30N 40°39' W 074°03'0 0.0
2017-Sep-20 20:00N 40°39' W 074°03'0 0.0
2017-Sep-20 19:27N 40°39' W 074°03'0 0.0
2017-Sep-20 19:00N 40°39' W 074°03'0 0.0
2017-Sep-20 18:30N 40°39' W 074°03'0 0.0
2017-Sep-20 18:00N 40°39' W 074°03'0 0.0
2017-Sep-20 17:30N 40°39' W 074°03'0 0.0
2017-Sep-20 17:00N 40°39' W 074°03'0 0.0
2017-Sep-20 16:30N 40°39' W 074°03'0 0.1
2017-Sep-20 16:00N 40°39' W 074°03'0 0.1
2017-Sep-20 15:30N 40°39' W 074°03'1 1.8
2017-Sep-20 15:00N 40°40' W 074°03'7 7.2
2017-Sep-20 14:00N 40°47' W 073°60'3 6.2
2017-Sep-20 13:30N 40°50' W 073°58'3 6.3
2017-Sep-20 13:00N 40°53' W 073°56'0 0.2
2017-Sep-20 12:30N 40°53' W 073°56'0 0.2
2017-Sep-20 12:00N 40°53' W 073°56'0 0.3
2017-Sep-20 11:30N 40°52' W 073°56'0 0.0
2017-Sep-20 11:00N 40°52' W 073°56'0 0.0
2017-Sep-20 10:30N 40°52' W 073°56'0 0.0
2017-Sep-20 10:00N 40°52' W 073°56'0 0.0
2017-Sep-20 09:30N 40°52' W 073°56'0 0.0
2017-Sep-20 09:00N 40°52' W 073°56'0 0.0
2017-Sep-20 08:30N 40°52' W 073°56'0 0.0
2017-Sep-20 07:57N 40°52' W 073°56'0 0.0
2017-Sep-20 07:30N 40°52' W 073°56'0 0.0
2017-Sep-20 07:00N 40°52' W 073°56'0 0.0
2017-Sep-20 06:30N 40°52' W 073°56'0 0.0
2017-Sep-20 06:00N 40°52' W 073°56'0 0.0
2017-Sep-20 05:30N 40°52' W 073°56'0 0.0
2017-Sep-20 04:57N 40°52' W 073°56'0 0.0
2017-Sep-20 04:27N 40°52' W 073°56'0 0.0
2017-Sep-20 04:00N 40°52' W 073°56'0 0.3
2017-Sep-20 03:30N 40°53' W 073°56'0 0.1
2017-Sep-20 03:00N 40°53' W 073°56'0 0.0
2017-Sep-20 02:30N 40°53' W 073°56'0 0.0
2017-Sep-20 02:00N 40°53' W 073°56'0 0.0
2017-Sep-20 01:30N 40°53' W 073°56'0 0.0
2017-Sep-20 01:00N 40°53' W 073°56'0 0.0
2017-Sep-20 00:30N 40°53' W 073°56'0 0.1
2017-Sep-19 23:54N 40°53' W 073°56'0 0.1
2017-Sep-19 23:30N 40°53' W 073°56'0 0.3
2017-Sep-19 23:00N 40°52' W 073°56'0 0.1
2017-Sep-19 22:30N 40°52' W 073°56'0 0.1
2017-Sep-19 22:00N 40°52' W 073°56'0 0.1
2017-Sep-19 21:30N 40°52' W 073°56'0 0.0
2017-Sep-19 21:00N 40°52' W 073°56'0 0.0
2017-Sep-19 20:30N 40°52' W 073°56'0 0.0
2017-Sep-19 19:57N 40°52' W 073°56'0 0.0
2017-Sep-19 19:30N 40°52' W 073°56'0 0.0
2017-Sep-19 19:00N 40°52' W 073°56'0 0.0
2017-Sep-19 18:30N 40°52' W 073°56'0 0.0
2017-Sep-19 18:00N 40°52' W 073°56'0 0.0
2017-Sep-19 17:30N 40°52' W 073°56'0 0.1
2017-Sep-19 17:00N 40°52' W 073°56'0 0.0
2017-Sep-19 16:30N 40°52' W 073°56'0 0.0
2017-Sep-19 15:57N 40°52' W 073°56'0 0.3
2017-Sep-19 15:30N 40°53' W 073°56'0 0.1
2017-Sep-19 15:00N 40°53' W 073°56'0 0.1
2017-Sep-19 14:30N 40°53' W 073°56'0 0.0
2017-Sep-19 14:00N 40°53' W 073°56'0 0.0
2017-Sep-19 13:30N 40°53' W 073°56'0 0.0
2017-Sep-19 12:48N 40°53' W 073°56'0 0.0
2017-Sep-19 12:30N 40°53' W 073°56'0 0.0
2017-Sep-19 12:00N 40°53' W 073°56'0 0.0
2017-Sep-19 11:30N 40°53' W 073°56'0 0.2
2017-Sep-19 10:51N 40°53' W 073°56'0 0.2
2017-Sep-19 10:30N 40°52' W 073°56'0 0.1
2017-Sep-19 10:00N 40°52' W 073°56'0 0.0
2017-Sep-19 09:30N 40°52' W 073°56'0 0.0
2017-Sep-19 09:00N 40°52' W 073°56'0 0.0
2017-Sep-19 08:30N 40°52' W 073°56'0 0.0
2017-Sep-19 08:00N 40°52' W 073°56'0 0.0
2017-Sep-19 07:30N 40°52' W 073°56'0 0.0
2017-Sep-19 07:00N 40°52' W 073°56'0 0.0
2017-Sep-19 06:30N 40°52' W 073°56'0 0.0
2017-Sep-19 06:00N 40°52' W 073°56'0 0.0
2017-Sep-19 05:30N 40°52' W 073°56'0 0.0
2017-Sep-19 05:00N 40°52' W 073°56'0 0.0
2017-Sep-19 04:30N 40°52' W 073°56'0 0.0
2017-Sep-19 04:00N 40°52' W 073°56'0 0.2
2017-Sep-19 03:27N 40°53' W 073°56'0 0.3
2017-Sep-19 03:00N 40°53' W 073°56'0 0.1
2017-Sep-19 02:30N 40°53' W 073°56'0 0.0
2017-Sep-19 01:57N 40°53' W 073°56'0 0.0
2017-Sep-19 01:30N 40°53' W 073°56'0 0.0
2017-Sep-19 01:00N 40°53' W 073°56'0 0.0
2017-Sep-19 00:27N 40°53' W 073°56'0 0.0
2017-Sep-19 00:00N 40°53' W 073°56'0 0.0
2017-Sep-18 23:30N 40°53' W 073°56'0 0.0
2017-Sep-18 22:57N 40°53' W 073°56'0 0.1
2017-Sep-18 22:24N 40°53' W 073°56'0 0.2
2017-Sep-18 22:00N 40°53' W 073°56'3 6.1
2017-Sep-18 21:30N 40°50' W 073°57'4 8.7
2017-Sep-18 21:00N 40°46' W 074°00'4 8.0
2017-Sep-18 20:30N 40°42' W 074°02'3 4.7
2017-Sep-18 19:58N 40°40' W 074°03'0 0.0
2017-Sep-18 19:28N 40°40' W 074°03'0 0.0
2017-Sep-18 18:58N 40°40' W 074°03'0 0.0
2017-Sep-18 18:25N 40°40' W 074°03'0 0.0
2017-Sep-18 17:58N 40°40' W 074°03'0 0.3
2017-Sep-18 17:30N 40°40' W 074°03'510.0
2017-Sep-18 17:00N 40°38' W 074°09'1 1.2
2017-Sep-18 16:29N 40°38' W 074°10'0 0.0
2017-Sep-18 15:59N 40°38' W 074°10'0 0.0
2017-Sep-18 15:29N 40°38' W 074°10'0 0.0
2017-Sep-18 14:56N 40°38' W 074°10'0 0.0
2017-Sep-18 14:29N 40°38' W 074°10'0 0.0
2017-Sep-18 13:59N 40°38' W 074°10'0 0.0
2017-Sep-18 13:29N 40°38' W 074°10'0 0.0
2017-Sep-18 12:59N 40°38' W 074°10'0 0.0
2017-Sep-18 12:29N 40°38' W 074°10'0 0.0
2017-Sep-18 11:59N 40°38' W 074°10'2 5.2
2017-Sep-18 11:30N 40°39' W 074°07'3 6.8
2017-Sep-18 11:00N 40°40' W 074°02'0 0.0
2017-Sep-18 10:30N 40°40' W 074°02'0 0.1
2017-Sep-18 10:00N 40°40' W 074°02'0 0.2
2017-Sep-18 09:30N 40°40' W 074°03'0 0.1
2017-Sep-18 09:00N 40°40' W 074°03'0 0.0
2017-Sep-18 08:30N 40°40' W 074°03'0 0.0
2017-Sep-18 08:00N 40°40' W 074°03'0 0.0
2017-Sep-18 07:30N 40°40' W 074°03'0 0.0
2017-Sep-18 07:00N 40°40' W 074°03'0 0.1
2017-Sep-18 06:30N 40°40' W 074°03'4 8.6
2017-Sep-18 06:00N 40°44' W 074°01'611.6
2017-Sep-18 05:30N 40°49' W 073°58'611.1
2017-Sep-18 05:00N 40°55' W 073°55'3 0.1
2017-Sep-16 01:59N 40°57' W 073°54'3 6.0
2017-Sep-16 01:29N 40°54' W 073°55'3 6.2
2017-Sep-16 01:00N 40°52' W 073°57'3 6.8
2017-Sep-16 00:30N 40°49' W 073°58'4 7.3
2017-Sep-16 00:01N 40°45' W 074°01'4 7.5
2017-Sep-15 23:31N 40°42' W 074°02'3 6.6
2017-Sep-15 23:01N 40°39' W 074°04'4 7.7
2017-Sep-15 22:31N 40°39' W 074°09'2 4.9
2017-Sep-15 22:00N 40°38' W 074°12'0 0.0
2017-Sep-15 21:24N 40°38' W 074°12'0 0.0
2017-Sep-15 21:00N 40°38' W 074°12'0 0.0
2017-Sep-15 20:19N 40°38' W 074°12'0 0.0
2017-Sep-15 19:55N 40°38' W 074°12'0 0.0
2017-Sep-15 19:22N 40°38' W 074°12'0 0.0
2017-Sep-15 18:55N 40°38' W 074°12'0 0.0
2017-Sep-15 18:28N 40°38' W 074°12'0 0.0
2017-Sep-15 17:52N 40°38' W 074°12'0 0.0
2017-Sep-15 17:25N 40°38' W 074°12'0 0.0
2017-Sep-15 16:58N 40°38' W 074°12'0 0.0
2017-Sep-15 16:25N 40°38' W 074°12'0 0.0
2017-Sep-15 15:55N 40°38' W 074°12'0 0.0
2017-Sep-15 15:25N 40°38' W 074°12'0 0.0
2017-Sep-15 14:58N 40°38' W 074°12'0 0.0
2017-Sep-15 14:25N 40°38' W 074°12'0 0.0
2017-Sep-15 13:55N 40°38' W 074°12'0 0.0
2017-Sep-15 13:28N 40°38' W 074°12'0 0.0
2017-Sep-15 12:55N 40°38' W 074°12'0 0.0
2017-Sep-15 12:25N 40°38' W 074°12'0 0.0
2017-Sep-15 11:58N 40°38' W 074°12'0 0.0
2017-Sep-15 11:28N 40°38' W 074°12'0 0.0
2017-Sep-15 10:55N 40°38' W 074°12'0 0.0
2017-Sep-15 10:28N 40°38' W 074°12'0 0.0
2017-Sep-15 09:52N 40°38' W 074°12'0 0.0
2017-Sep-15 09:25N 40°38' W 074°12'0 0.0
2017-Sep-15 08:58N 40°38' W 074°12'0 0.0
2017-Sep-15 08:28N 40°38' W 074°12'0 0.0
2017-Sep-15 07:58N 40°38' W 074°12'0 0.0
2017-Sep-15 07:25N 40°38' W 074°12'0 0.0
2017-Sep-15 06:58N 40°38' W 074°12'0 0.0
2017-Sep-15 06:28N 40°38' W 074°12'0 0.0
2017-Sep-15 05:55N 40°38' W 074°12'0 0.0
2017-Sep-15 05:28N 40°38' W 074°12'0 0.0
2017-Sep-15 04:58N 40°38' W 074°12'0 0.0
2017-Sep-15 04:25N 40°38' W 074°12'0 0.0
2017-Sep-15 03:58N 40°38' W 074°12'0 0.0
2017-Sep-15 03:28N 40°38' W 074°12'0 0.0
2017-Sep-15 02:58N 40°38' W 074°12'0 0.0
2017-Sep-15 02:28N 40°38' W 074°12'0 0.0
2017-Sep-15 01:58N 40°38' W 074°12'0 0.0
2017-Sep-15 01:28N 40°38' W 074°12'0 0.0
2017-Sep-15 00:58N 40°38' W 074°12'0 0.0
2017-Sep-15 00:28N 40°38' W 074°12'0 0.0
2017-Sep-14 23:58N 40°38' W 074°12'0 0.0
2017-Sep-14 23:28N 40°38' W 074°12'0 0.0
2017-Sep-14 22:52N 40°38' W 074°12'0 0.0
2017-Sep-14 22:28N 40°38' W 074°12'1 1.4
2017-Sep-14 21:59N 40°37' W 074°12'1 1.2
2017-Sep-14 21:30N 40°37' W 074°12'2 4.0
2017-Sep-14 21:01N 40°39' W 074°10'3 6.0
2017-Sep-14 20:30N 40°39' W 074°06'3 5.8
2017-Sep-14 19:58N 40°40' W 074°02'0 0.0
2017-Sep-14 19:28N 40°40' W 074°02'0 0.1
2017-Sep-14 18:58N 40°40' W 074°02'0 0.0
2017-Sep-14 18:28N 40°40' W 074°02'0 0.0
2017-Sep-14 17:58N 40°40' W 074°02'0 0.0
2017-Sep-14 17:28N 40°40' W 074°02'0 0.0
2017-Sep-14 16:58N 40°40' W 074°02'0 0.1
2017-Sep-14 16:28N 40°40' W 074°02'0 0.2
2017-Sep-14 15:58N 40°40' W 074°02'0 0.0
2017-Sep-14 15:28N 40°40' W 074°02'0 0.1
2017-Sep-14 14:58N 40°40' W 074°02'0 0.1
2017-Sep-14 14:28N 40°40' W 074°02'0 0.1
2017-Sep-14 13:58N 40°40' W 074°02'0 0.0
2017-Sep-14 13:28N 40°40' W 074°02'0 0.0
2017-Sep-14 12:58N 40°40' W 074°02'0 0.0
2017-Sep-14 12:28N 40°40' W 074°02'0 0.0
2017-Sep-14 11:58N 40°40' W 074°02'0 0.0
2017-Sep-14 11:28N 40°40' W 074°02'  

Dump ship's entire track history